createdAt,value
2017-06-21T00:00:19.896Z,79.95
2017-06-21T00:01:20.540Z,80.15
2017-06-21T00:02:21.184Z,79.95
2017-06-21T00:03:21.827Z,80.44
2017-06-21T00:04:22.470Z,79.37
2017-06-21T00:05:23.115Z,80.05
2017-06-21T00:06:23.760Z,80.15
2017-06-21T00:07:24.402Z,79.85
2017-06-21T00:08:25.046Z,79.76
2017-06-21T00:09:25.888Z,79.57
2017-06-21T00:10:26.534Z,80.24
2017-06-21T00:11:27.187Z,79.66
2017-06-21T00:12:27.824Z,80.15
2017-06-21T00:13:28.465Z,79.76
2017-06-21T00:14:29.112Z,80.05
2017-06-21T00:15:29.754Z,80.24
2017-06-21T00:16:30.399Z,80.34
2017-06-21T00:17:31.242Z,79.95
2017-06-21T00:18:31.885Z,80.34
2017-06-21T00:19:32.531Z,80.01
2017-06-21T00:20:33.175Z,80.34
2017-06-21T00:21:33.817Z,80.69
2017-06-21T00:22:34.463Z,80.15
2017-06-21T00:23:35.106Z,80.15
2017-06-21T00:24:35.750Z,80.44
2017-06-21T00:25:36.544Z,79.43
2017-06-21T00:26:37.189Z,80.01
2017-06-21T00:27:37.835Z,79.95
2017-06-21T00:28:38.480Z,80.30
2017-06-21T00:29:39.125Z,79.91
2017-06-21T00:30:39.828Z,80.40
2017-06-21T00:31:40.471Z,80.59
2017-06-21T00:32:41.113Z,80.15
2017-06-21T00:33:41.907Z,80.59
2017-06-21T00:34:42.553Z,80.59
2017-06-21T00:35:43.198Z,80.49
2017-06-21T00:36:43.840Z,80.59
2017-06-21T00:37:44.485Z,80.59
2017-06-21T00:38:45.130Z,80.20
2017-06-21T00:39:45.771Z,80.01
2017-06-21T00:40:46.414Z,80.11
2017-06-21T00:41:47.259Z,80.49
2017-06-21T00:42:47.906Z,80.49
2017-06-21T00:43:48.549Z,80.59
2017-06-21T00:44:49.191Z,79.91
2017-06-21T00:45:49.834Z,80.20
2017-06-21T00:46:50.479Z,80.40
2017-06-21T00:47:51.124Z,80.40
2017-06-21T00:48:51.766Z,80.11
2017-06-21T00:49:52.409Z,80.20
2017-06-21T00:50:53.253Z,80.69
2017-06-21T00:51:53.897Z,80.49
2017-06-21T00:52:54.544Z,80.69
2017-06-21T00:53:55.187Z,80.98
2017-06-21T00:54:55.832Z,81.56
2017-06-21T00:55:56.476Z,81.65
2017-06-21T00:56:57.119Z,81.27
2017-06-21T00:57:57.761Z,81.56
2017-06-21T00:58:58.605Z,80.98
2017-06-21T00:59:59.248Z,80.98
2017-06-21T01:00:59.890Z,81.46
2017-06-21T01:02:00.534Z,81.75
2017-06-21T01:03:01.176Z,81.46
2017-06-21T01:04:01.821Z,81.46
2017-06-21T01:05:02.465Z,81.37
2017-06-21T01:06:03.107Z,81.65
2017-06-21T01:07:03.900Z,81.46
2017-06-21T01:08:04.545Z,81.46
2017-06-21T01:09:05.191Z,81.37
2017-06-21T01:10:05.836Z,81.46
2017-06-21T01:11:06.477Z,81.46
2017-06-21T01:12:07.119Z,81.85
2017-06-21T01:13:07.765Z,81.46
2017-06-21T01:14:08.406Z,81.85
2017-06-21T01:15:09.253Z,81.65
2017-06-21T01:16:09.894Z,81.27
2017-06-21T01:17:10.540Z,81.56
2017-06-21T01:18:11.185Z,81.46
2017-06-21T01:19:11.826Z,81.37
2017-06-21T01:20:12.476Z,81.75
2017-06-21T01:21:13.117Z,81.37
2017-06-21T01:22:13.761Z,81.75
2017-06-21T01:23:14.405Z,81.56
2017-06-21T01:24:15.346Z,81.56
2017-06-21T01:25:15.991Z,81.46
2017-06-21T01:26:16.633Z,81.85
2017-06-21T01:27:17.276Z,81.56
2017-06-21T01:28:17.922Z,81.56
2017-06-21T01:29:18.567Z,81.65
2017-06-21T01:30:19.210Z,81.37
2017-06-21T01:31:19.855Z,81.56
2017-06-21T01:32:20.698Z,81.65
2017-06-21T01:33:21.342Z,81.46
2017-06-21T01:34:21.986Z,81.46
2017-06-21T01:35:22.632Z,81.37
2017-06-21T01:36:23.274Z,81.46
2017-06-21T01:37:23.918Z,81.46
2017-06-21T01:38:24.560Z,81.65
2017-06-21T01:39:25.205Z,81.37
2017-06-21T01:40:26.047Z,81.75
2017-06-21T01:41:26.690Z,81.95
2017-06-21T01:42:27.331Z,81.46
2017-06-21T01:43:27.975Z,81.95
2017-06-21T01:44:28.620Z,81.95
2017-06-21T01:45:29.261Z,81.75
2017-06-21T01:46:29.907Z,82.04
2017-06-21T01:47:30.552Z,81.56
2017-06-21T01:48:31.344Z,81.95
2017-06-21T01:49:31.988Z,81.95
2017-06-21T01:50:32.633Z,81.95
2017-06-21T01:51:33.278Z,81.46
2017-06-21T01:52:33.921Z,81.85
2017-06-21T01:53:34.565Z,81.85
2017-06-21T01:54:35.207Z,81.65
2017-06-21T01:55:35.852Z,81.95
2017-06-21T01:56:36.894Z,81.95
2017-06-21T01:57:37.536Z,81.81
2017-06-21T01:58:38.178Z,81.62
2017-06-21T01:59:38.772Z,81.42
2017-06-21T02:00:39.416Z,81.85
2017-06-21T02:01:40.059Z,81.85
2017-06-21T02:02:40.700Z,81.75
2017-06-21T02:03:41.346Z,81.95
2017-06-21T02:04:41.988Z,81.32
2017-06-21T02:05:42.781Z,81.65
2017-06-21T02:06:43.428Z,82.53
2017-06-21T02:07:44.072Z,82.23
2017-06-21T02:08:44.714Z,82.53
2017-06-21T02:09:45.359Z,82.04
2017-06-21T02:10:46.003Z,82.00
2017-06-21T02:11:46.598Z,81.52
2017-06-21T02:12:47.239Z,81.75
2017-06-21T02:13:48.088Z,81.95
2017-06-21T02:14:48.784Z,82.00
2017-06-21T02:15:49.427Z,81.81
2017-06-21T02:16:50.071Z,81.95
2017-06-21T02:17:50.719Z,81.37
2017-06-21T02:18:51.359Z,81.56
2017-06-21T02:19:52.007Z,81.52
2017-06-21T02:20:52.645Z,82.23
2017-06-21T02:21:53.491Z,82.23
2017-06-21T02:22:54.137Z,81.65
2017-06-21T02:23:54.779Z,82.43
2017-06-21T02:24:55.422Z,81.95
2017-06-21T02:25:56.069Z,82.23
2017-06-21T02:26:56.769Z,82.04
2017-06-21T02:27:57.413Z,82.04
2017-06-21T02:28:58.054Z,82.14
2017-06-21T02:29:58.850Z,82.23
2017-06-21T02:30:59.491Z,81.37
2017-06-21T02:32:00.133Z,81.75
2017-06-21T02:33:00.776Z,82.04
2017-06-21T02:34:01.418Z,82.20
2017-06-21T02:35:02.062Z,82.20
2017-06-21T02:36:02.706Z,82.20
2017-06-21T02:37:03.353Z,82.00
2017-06-21T02:38:03.993Z,81.75
2017-06-21T02:39:04.837Z,81.75
2017-06-21T02:40:05.482Z,82.23
2017-06-21T02:41:06.125Z,81.90
2017-06-21T02:42:06.773Z,82.14
2017-06-21T02:43:07.415Z,82.04
2017-06-21T02:44:08.056Z,82.10
2017-06-21T02:45:08.701Z,82.00
2017-06-21T02:46:09.345Z,82.04
2017-06-21T02:47:10.186Z,81.71
2017-06-21T02:48:10.829Z,81.90
2017-06-21T02:49:11.472Z,81.71
2017-06-21T02:50:12.116Z,81.90
2017-06-21T02:51:12.760Z,82.14
2017-06-21T02:52:13.402Z,81.90
2017-06-21T02:53:14.048Z,82.23
2017-06-21T02:54:14.693Z,81.81
2017-06-21T02:55:15.487Z,81.71
2017-06-21T02:56:16.132Z,81.90
2017-06-21T02:57:16.776Z,82.10
2017-06-21T02:58:17.418Z,81.71
2017-06-21T02:59:18.065Z,81.52
2017-06-21T03:00:18.705Z,81.52
2017-06-21T03:01:19.351Z,81.71
2017-06-21T03:02:19.993Z,81.81
2017-06-21T03:03:20.837Z,82.20
2017-06-21T03:04:21.434Z,81.90
2017-06-21T03:05:22.077Z,81.90
2017-06-21T03:06:22.718Z,81.81
2017-06-21T03:07:23.361Z,82.00
2017-06-21T03:08:24.013Z,81.52
2017-06-21T03:09:24.650Z,82.00
2017-06-21T03:10:25.294Z,81.90
2017-06-21T03:11:26.138Z,81.52
2017-06-21T03:12:26.785Z,82.10
2017-06-21T03:13:27.427Z,82.00
2017-06-21T03:14:28.075Z,82.39
2017-06-21T03:15:28.714Z,82.10
2017-06-21T03:16:29.357Z,82.29
2017-06-21T03:17:29.999Z,81.81
2017-06-21T03:18:30.642Z,82.48
2017-06-21T03:19:31.286Z,81.71
2017-06-21T03:20:32.228Z,81.81
2017-06-21T03:21:32.870Z,82.00
2017-06-21T03:22:33.513Z,82.29
2017-06-21T03:23:34.159Z,81.71
2017-06-21T03:24:34.804Z,82.39
2017-06-21T03:25:35.446Z,82.20
2017-06-21T03:26:36.089Z,82.39
2017-06-21T03:27:36.734Z,82.48
2017-06-21T03:28:37.574Z,82.29
2017-06-21T03:29:38.217Z,82.20
2017-06-21T03:30:38.859Z,82.00
2017-06-21T03:31:39.502Z,82.39
2017-06-21T03:32:40.146Z,82.39
2017-06-21T03:33:40.788Z,82.48
2017-06-21T03:34:41.432Z,82.39
2017-06-21T03:35:42.076Z,82.20
2017-06-21T03:36:42.870Z,82.20
2017-06-21T03:37:43.516Z,82.68
2017-06-21T03:38:44.160Z,82.68
2017-06-21T03:39:44.805Z,82.97
2017-06-21T03:40:45.450Z,82.39
2017-06-21T03:41:46.093Z,82.78
2017-06-21T03:42:46.734Z,82.58
2017-06-21T03:43:47.378Z,82.78
2017-06-21T03:44:48.221Z,82.68
2017-06-21T03:45:48.865Z,82.58
2017-06-21T03:46:49.506Z,82.87
2017-06-21T03:47:50.150Z,83.26
2017-06-21T03:48:50.794Z,82.97
2017-06-21T03:49:51.437Z,83.36
2017-06-21T03:50:52.081Z,82.87
2017-06-21T03:51:52.725Z,82.68
2017-06-21T03:52:53.368Z,82.97
2017-06-21T03:53:54.213Z,82.97
2017-06-21T03:54:54.857Z,82.97
2017-06-21T03:55:55.498Z,82.97
2017-06-21T03:56:56.144Z,83.06
2017-06-21T03:57:56.789Z,82.87
2017-06-21T03:58:57.433Z,83.06
2017-06-21T03:59:58.074Z,83.45
2017-06-21T04:00:58.718Z,83.06
2017-06-21T04:01:59.663Z,82.48
2017-06-21T04:03:00.306Z,82.87
2017-06-21T04:04:00.947Z,82.78
2017-06-21T04:05:01.592Z,83.26
2017-06-21T04:06:02.236Z,82.87
2017-06-21T04:07:02.878Z,83.36
2017-06-21T04:08:03.522Z,82.97
2017-06-21T04:09:04.164Z,83.16
2017-06-21T04:10:05.008Z,83.45
2017-06-21T04:11:05.656Z,83.36
2017-06-21T04:12:06.296Z,83.26
2017-06-21T04:13:06.939Z,82.97
2017-06-21T04:14:07.583Z,83.26
2017-06-21T04:15:08.225Z,83.45
2017-06-21T04:16:08.869Z,83.26
2017-06-21T04:17:09.513Z,83.45
2017-06-21T04:18:10.759Z,82.97
2017-06-21T04:19:11.412Z,83.36
2017-06-21T04:20:12.057Z,83.06
2017-06-21T04:21:12.699Z,83.94
2017-06-21T04:22:13.344Z,83.55
2017-06-21T04:23:13.984Z,83.26
2017-06-21T04:24:14.630Z,83.45
2017-06-21T04:25:15.275Z,83.55
2017-06-21T04:26:16.073Z,83.55
2017-06-21T04:27:16.769Z,83.36
2017-06-21T04:28:17.415Z,83.06
2017-06-21T04:29:18.056Z,83.55
2017-06-21T04:30:18.700Z,83.16
2017-06-21T04:31:19.344Z,83.84
2017-06-21T04:32:19.987Z,83.94
2017-06-21T04:33:20.631Z,83.84
2017-06-21T04:34:21.273Z,83.36
2017-06-21T04:35:22.170Z,83.16
2017-06-21T04:36:22.814Z,83.45
2017-06-21T04:37:23.454Z,83.36
2017-06-21T04:38:24.099Z,83.74
2017-06-21T04:39:24.740Z,83.55
2017-06-21T04:40:25.386Z,83.64
2017-06-21T04:41:26.028Z,83.64
2017-06-21T04:42:26.672Z,83.74
2017-06-21T04:43:27.765Z,84.03
2017-06-21T04:44:28.410Z,83.84
2017-06-21T04:45:29.055Z,83.74
2017-06-21T04:46:29.701Z,83.74
2017-06-21T04:47:30.345Z,83.55
2017-06-21T04:48:30.985Z,83.74
2017-06-21T04:49:31.630Z,83.55
2017-06-21T04:50:32.272Z,84.03
2017-06-21T04:51:33.117Z,83.64
2017-06-21T04:52:33.760Z,84.03
2017-06-21T04:53:34.405Z,83.64
2017-06-21T04:54:35.047Z,83.74
2017-06-21T04:55:35.694Z,83.74
2017-06-21T04:56:36.333Z,83.55
2017-06-21T04:57:36.977Z,83.45
2017-06-21T04:58:37.620Z,83.45
2017-06-21T04:59:38.467Z,83.74
2017-06-21T05:00:39.110Z,83.16
2017-06-21T05:01:39.754Z,83.45
2017-06-21T05:02:40.395Z,83.55
2017-06-21T05:03:41.040Z,83.55
2017-06-21T05:04:41.685Z,84.03
2017-06-21T05:05:42.327Z,84.13
2017-06-21T05:06:42.972Z,83.64
2017-06-21T05:07:43.614Z,84.13
2017-06-21T05:08:44.458Z,83.84
2017-06-21T05:09:45.102Z,83.45
2017-06-21T05:10:45.748Z,83.94
2017-06-21T05:11:46.391Z,83.84
2017-06-21T05:12:47.034Z,84.03
2017-06-21T05:13:47.677Z,83.36
2017-06-21T05:14:48.319Z,83.36
2017-06-21T05:15:48.961Z,83.26
2017-06-21T05:16:49.804Z,84.22
2017-06-21T05:17:50.450Z,83.45
2017-06-21T05:18:51.090Z,83.55
2017-06-21T05:19:51.734Z,83.84
2017-06-21T05:20:52.378Z,83.55
2017-06-21T05:21:53.031Z,84.42
2017-06-21T05:22:53.665Z,83.36
2017-06-21T05:23:54.309Z,83.36
2017-06-21T05:24:55.151Z,83.64
2017-06-21T05:25:55.796Z,83.36
2017-06-21T05:26:56.440Z,83.36
2017-06-21T05:27:57.085Z,84.22
2017-06-21T05:28:57.727Z,83.36
2017-06-21T05:29:58.369Z,83.36
2017-06-21T05:30:59.013Z,83.45
2017-06-21T05:31:59.657Z,83.16
2017-06-21T05:33:00.548Z,83.45
2017-06-21T05:34:01.192Z,84.22
2017-06-21T05:35:01.838Z,84.52
2017-06-21T05:36:02.481Z,83.36
2017-06-21T05:37:03.126Z,83.45
2017-06-21T05:38:03.767Z,83.55
2017-06-21T05:39:04.412Z,83.55
2017-06-21T05:40:05.056Z,83.55
2017-06-21T05:41:05.947Z,83.55
2017-06-21T05:42:06.594Z,83.94
2017-06-21T05:43:07.306Z,83.55
2017-06-21T05:44:07.938Z,83.45
2017-06-21T05:45:08.582Z,83.36
2017-06-21T05:46:09.226Z,83.74
2017-06-21T05:47:09.868Z,83.36
2017-06-21T05:48:10.509Z,83.74
2017-06-21T05:49:11.152Z,83.74
2017-06-21T05:50:12.046Z,84.13
2017-06-21T05:51:12.691Z,83.16
2017-06-21T05:52:13.333Z,83.74
2017-06-21T05:53:13.976Z,83.36
2017-06-21T05:54:14.620Z,83.84
2017-06-21T05:55:15.261Z,83.55
2017-06-21T05:56:15.905Z,83.45
2017-06-21T05:57:16.549Z,83.31
2017-06-21T05:58:17.394Z,84.03
2017-06-21T05:59:18.037Z,83.55
2017-06-21T06:00:18.679Z,83.45
2017-06-21T06:01:19.321Z,83.74
2017-06-21T06:02:19.969Z,84.03
2017-06-21T06:03:20.613Z,83.94
2017-06-21T06:04:21.258Z,83.74
2017-06-21T06:05:21.901Z,83.36
2017-06-21T06:06:22.743Z,83.36
2017-06-21T06:07:23.384Z,83.94
2017-06-21T06:08:24.031Z,83.26
2017-06-21T06:09:24.732Z,83.36
2017-06-21T06:10:25.376Z,84.03
2017-06-21T06:11:26.019Z,84.22
2017-06-21T06:12:26.663Z,83.84
2017-06-21T06:13:27.308Z,83.36
2017-06-21T06:14:28.198Z,83.84
2017-06-21T06:15:28.844Z,84.03
2017-06-21T06:16:29.487Z,83.84
2017-06-21T06:17:30.131Z,83.45
2017-06-21T06:18:30.773Z,83.36
2017-06-21T06:19:31.420Z,83.36
2017-06-21T06:20:32.061Z,84.32
2017-06-21T06:21:32.654Z,83.94
2017-06-21T06:22:33.297Z,83.55
2017-06-21T06:23:34.092Z,83.55
2017-06-21T06:24:34.735Z,83.94
2017-06-21T06:25:35.383Z,82.87
2017-06-21T06:26:36.080Z,83.16
2017-06-21T06:27:36.723Z,83.74
2017-06-21T06:28:37.367Z,83.55
2017-06-21T06:29:38.008Z,83.55
2017-06-21T06:30:38.654Z,83.45
2017-06-21T06:31:39.500Z,83.12
2017-06-21T06:32:40.140Z,83.36
2017-06-21T06:33:40.786Z,84.22
2017-06-21T06:34:41.428Z,84.22
2017-06-21T06:35:42.070Z,84.13
2017-06-21T06:36:42.718Z,83.94
2017-06-21T06:37:43.360Z,84.03
2017-06-21T06:38:44.004Z,83.16
2017-06-21T06:39:44.899Z,83.36
2017-06-21T06:40:49.894Z,83.36
2017-06-21T06:41:50.543Z,83.94
2017-06-21T06:42:51.180Z,83.45
2017-06-21T06:43:51.825Z,83.26
2017-06-21T06:44:52.470Z,84.03
2017-06-21T06:45:53.113Z,83.36
2017-06-21T06:46:53.756Z,83.36
2017-06-21T06:47:54.597Z,83.45
2017-06-21T06:48:55.244Z,83.84
2017-06-21T06:49:55.889Z,84.13
2017-06-21T06:50:56.531Z,84.22
2017-06-21T06:51:57.175Z,83.55
2017-06-21T06:52:57.816Z,83.55
2017-06-21T06:53:58.459Z,84.22
2017-06-21T06:54:59.102Z,83.55
2017-06-21T06:55:59.946Z,83.36
2017-06-21T06:57:00.589Z,84.22
2017-06-21T06:58:01.232Z,84.13
2017-06-21T06:59:01.875Z,83.94
2017-06-21T07:00:02.520Z,83.94
2017-06-21T07:01:03.219Z,84.03
2017-06-21T07:02:03.861Z,83.84
2017-06-21T07:03:04.503Z,83.84
2017-06-21T07:04:05.149Z,83.84
2017-06-21T07:05:06.095Z,83.55
2017-06-21T07:06:06.739Z,83.84
2017-06-21T07:07:07.381Z,84.32
2017-06-21T07:08:08.023Z,83.74
2017-06-21T07:09:08.667Z,84.03
2017-06-21T07:10:09.309Z,83.94
2017-06-21T07:11:09.954Z,83.74
2017-06-21T07:12:10.600Z,83.74
2017-06-21T07:13:11.642Z,83.94
2017-06-21T07:14:12.285Z,83.84
2017-06-21T07:15:12.927Z,84.03
2017-06-21T07:16:13.573Z,84.03
2017-06-21T07:17:14.218Z,84.03
2017-06-21T07:18:14.859Z,84.03
2017-06-21T07:19:15.502Z,83.74
2017-06-21T07:20:16.147Z,84.03
2017-06-21T07:21:16.940Z,83.94
2017-06-21T07:22:17.582Z,83.94
2017-06-21T07:23:18.227Z,84.03
2017-06-21T07:24:18.870Z,83.94
2017-06-21T07:25:19.511Z,83.94
2017-06-21T07:26:20.154Z,84.22
2017-06-21T07:27:20.798Z,83.45
2017-06-21T07:28:21.444Z,83.55
2017-06-21T07:29:22.285Z,84.03
2017-06-21T07:30:22.933Z,83.36
2017-06-21T07:31:23.574Z,83.74
2017-06-21T07:32:24.217Z,83.94
2017-06-21T07:33:24.860Z,83.36
2017-06-21T07:34:25.502Z,83.55
2017-06-21T07:35:26.148Z,83.64
2017-06-21T07:36:26.790Z,83.64
2017-06-21T07:37:27.634Z,83.26
2017-06-21T07:38:28.279Z,83.36
2017-06-21T07:39:28.924Z,83.16
2017-06-21T07:40:29.563Z,83.74
2017-06-21T07:41:30.208Z,83.74
2017-06-21T07:42:30.849Z,83.74
2017-06-21T07:43:31.491Z,83.45
2017-06-21T07:44:32.139Z,83.36
2017-06-21T07:45:32.781Z,84.22
2017-06-21T07:46:33.626Z,83.55
2017-06-21T07:47:34.272Z,83.55
2017-06-21T07:48:34.913Z,83.74
2017-06-21T07:49:35.557Z,83.55
2017-06-21T07:50:36.203Z,83.64
2017-06-21T07:51:36.846Z,83.84
2017-06-21T07:52:37.490Z,83.26
2017-06-21T07:53:38.133Z,83.16
2017-06-21T07:54:38.975Z,83.55
2017-06-21T07:55:39.619Z,83.26
2017-06-21T07:56:40.264Z,83.36
2017-06-21T07:57:40.907Z,83.16
2017-06-21T07:58:41.501Z,83.26
2017-06-21T07:59:42.146Z,82.97
2017-06-21T08:00:42.787Z,82.97
2017-06-21T08:01:43.431Z,83.16
2017-06-21T08:02:44.224Z,82.78
2017-06-21T08:03:44.900Z,83.06
2017-06-21T08:04:45.512Z,82.97
2017-06-21T08:05:46.154Z,82.78
2017-06-21T08:06:46.799Z,82.78
2017-06-21T08:07:47.446Z,82.58
2017-06-21T08:08:48.090Z,82.68
2017-06-21T08:09:48.791Z,82.78
2017-06-21T08:10:49.637Z,82.48
2017-06-21T08:11:50.278Z,82.58
2017-06-21T08:12:50.923Z,82.39
2017-06-21T08:13:51.565Z,82.20
2017-06-21T08:14:52.209Z,82.20
2017-06-21T08:15:52.856Z,82.39
2017-06-21T08:16:53.504Z,82.39
2017-06-21T08:17:54.148Z,82.00
2017-06-21T08:18:54.791Z,82.00
2017-06-21T08:19:55.586Z,82.29
2017-06-21T08:20:56.231Z,82.00
2017-06-21T08:21:56.874Z,82.20
2017-06-21T08:22:57.521Z,82.29
2017-06-21T08:23:58.163Z,82.48
2017-06-21T08:24:58.805Z,82.29
2017-06-21T08:25:59.450Z,82.20
2017-06-21T08:27:00.093Z,82.39
2017-06-21T08:28:00.937Z,82.10
2017-06-21T08:29:01.584Z,82.39
2017-06-21T08:30:02.225Z,81.71
2017-06-21T08:31:02.866Z,82.39
2017-06-21T08:32:03.511Z,82.29
2017-06-21T08:33:04.156Z,81.71
2017-06-21T08:34:04.800Z,82.10
2017-06-21T08:35:05.444Z,81.90
2017-06-21T08:36:06.239Z,82.10
2017-06-21T08:37:06.883Z,82.00
2017-06-21T08:38:07.531Z,81.90
2017-06-21T08:39:08.230Z,81.71
2017-06-21T08:40:08.875Z,81.71
2017-06-21T08:41:09.516Z,82.10
2017-06-21T08:42:10.161Z,81.90
2017-06-21T08:43:10.807Z,81.81
2017-06-21T08:44:11.650Z,81.81
2017-06-21T08:45:12.295Z,81.90
2017-06-21T08:46:12.940Z,82.10
2017-06-21T08:47:13.585Z,82.00
2017-06-21T08:48:14.231Z,82.20
2017-06-21T08:49:14.877Z,81.71
2017-06-21T08:50:15.523Z,82.39
2017-06-21T08:51:16.215Z,82.20
2017-06-21T08:52:16.860Z,81.90
2017-06-21T08:53:17.709Z,81.81
2017-06-21T08:54:18.347Z,82.10
2017-06-21T08:55:18.991Z,81.81
2017-06-21T08:56:19.636Z,82.10
2017-06-21T08:57:20.282Z,81.81
2017-06-21T08:58:20.927Z,82.00
2017-06-21T08:59:21.571Z,81.71
2017-06-21T09:00:22.213Z,81.81
2017-06-21T09:01:23.307Z,82.20
2017-06-21T09:02:23.952Z,81.90
2017-06-21T09:03:24.598Z,82.20
2017-06-21T09:04:25.241Z,82.00
2017-06-21T09:05:25.884Z,81.90
2017-06-21T09:06:26.528Z,82.00
2017-06-21T09:07:27.174Z,81.90
2017-06-21T09:08:27.816Z,82.10
2017-06-21T09:09:28.663Z,81.71
2017-06-21T09:10:29.307Z,81.71
2017-06-21T09:11:29.952Z,81.81
2017-06-21T09:12:30.596Z,81.90
2017-06-21T09:13:31.293Z,81.81
2017-06-21T09:14:31.934Z,81.90
2017-06-21T09:15:32.578Z,81.90
2017-06-21T09:16:33.223Z,81.81
2017-06-21T09:17:34.117Z,81.71
2017-06-21T09:18:34.764Z,81.71
2017-06-21T09:19:35.407Z,81.71
2017-06-21T09:20:36.052Z,81.71
2017-06-21T09:21:36.696Z,82.10
2017-06-21T09:22:37.341Z,82.00
2017-06-21T09:23:37.985Z,81.81
2017-06-21T09:24:38.631Z,82.29
2017-06-21T09:25:39.625Z,81.90
2017-06-21T09:26:40.269Z,82.20
2017-06-21T09:27:40.914Z,82.04
2017-06-21T09:28:41.560Z,82.10
2017-06-21T09:29:42.205Z,81.90
2017-06-21T09:30:42.846Z,81.71
2017-06-21T09:31:43.492Z,81.71
2017-06-21T09:32:44.136Z,81.71
2017-06-21T09:33:44.778Z,81.81
2017-06-21T09:34:45.623Z,82.33
2017-06-21T09:35:46.269Z,82.23
2017-06-21T09:36:46.910Z,82.53
2017-06-21T09:37:47.555Z,82.23
2017-06-21T09:38:48.199Z,82.62
2017-06-21T09:39:48.845Z,82.43
2017-06-21T09:40:49.487Z,82.62
2017-06-21T09:41:50.134Z,82.62
2017-06-21T09:42:50.931Z,82.43
2017-06-21T09:43:51.574Z,82.81
2017-06-21T09:44:52.218Z,82.81
2017-06-21T09:45:52.864Z,82.53
2017-06-21T09:46:53.511Z,82.43
2017-06-21T09:47:54.158Z,82.72
2017-06-21T09:48:54.805Z,82.48
2017-06-21T09:49:55.452Z,82.62
2017-06-21T09:50:56.294Z,82.81
2017-06-21T09:51:56.942Z,82.81
2017-06-21T09:52:57.585Z,82.91
2017-06-21T09:53:58.228Z,82.81
2017-06-21T09:54:58.877Z,82.91
2017-06-21T09:55:59.522Z,82.91
2017-06-21T09:57:00.167Z,82.58
2017-06-21T09:58:00.813Z,83.11
2017-06-21T09:59:01.605Z,82.72
2017-06-21T10:00:02.252Z,82.81
2017-06-21T10:01:02.899Z,82.87
2017-06-21T10:02:03.545Z,83.01
2017-06-21T10:03:04.191Z,82.72
2017-06-21T10:04:04.836Z,82.72
2017-06-21T10:05:05.480Z,82.72
2017-06-21T10:06:06.123Z,82.81
2017-06-21T10:07:06.766Z,82.62
2017-06-21T10:08:07.612Z,82.23
2017-06-21T10:09:08.257Z,82.72
2017-06-21T10:10:08.901Z,82.81
2017-06-21T10:11:09.546Z,82.81
2017-06-21T10:12:10.190Z,82.81
2017-06-21T10:13:10.833Z,82.72
2017-06-21T10:14:11.478Z,82.81
2017-06-21T10:15:12.122Z,83.01
2017-06-21T10:16:12.969Z,82.91
2017-06-21T10:17:13.616Z,82.43
2017-06-21T10:18:14.256Z,83.01
2017-06-21T10:19:14.902Z,83.01
2017-06-21T10:20:15.544Z,82.62
2017-06-21T10:21:16.189Z,82.62
2017-06-21T10:22:16.836Z,82.23
2017-06-21T10:23:17.481Z,81.85
2017-06-21T10:24:18.326Z,81.95
2017-06-21T10:25:18.973Z,82.53
2017-06-21T10:26:19.619Z,82.72
2017-06-21T10:27:20.262Z,82.53
2017-06-21T10:28:20.908Z,82.91
2017-06-21T10:29:21.551Z,82.23
2017-06-21T10:30:22.200Z,82.53
2017-06-21T10:31:22.846Z,82.81
2017-06-21T10:32:23.644Z,82.23
2017-06-21T10:33:24.287Z,82.53
2017-06-21T10:34:24.929Z,82.91
2017-06-21T10:35:25.576Z,82.81
2017-06-21T10:36:26.221Z,82.72
2017-06-21T10:37:26.866Z,82.91
2017-06-21T10:38:27.509Z,81.75
2017-06-21T10:39:28.155Z,82.53
2017-06-21T10:40:28.997Z,82.53
2017-06-21T10:41:29.695Z,82.23
2017-06-21T10:42:30.388Z,81.85
2017-06-21T10:43:31.031Z,81.65
2017-06-21T10:44:31.675Z,81.27
2017-06-21T10:45:32.321Z,81.17
2017-06-21T10:46:32.969Z,81.56
2017-06-21T10:47:33.613Z,80.79
2017-06-21T10:48:34.256Z,80.98
2017-06-21T10:49:34.998Z,80.88
2017-06-21T10:50:35.644Z,80.98
2017-06-21T10:51:36.286Z,81.07
2017-06-21T10:52:36.933Z,80.88
2017-06-21T10:53:37.576Z,81.37
2017-06-21T10:54:38.218Z,81.85
2017-06-21T10:55:38.868Z,81.75
2017-06-21T10:56:39.570Z,81.46
2017-06-21T10:57:40.464Z,81.46
2017-06-21T10:58:41.109Z,81.37
2017-06-21T10:59:41.856Z,81.75
2017-06-21T11:00:42.501Z,81.75
2017-06-21T11:01:43.144Z,81.46
2017-06-21T11:02:43.789Z,81.56
2017-06-21T11:03:44.434Z,81.56
2017-06-21T11:04:45.079Z,81.46
2017-06-21T11:05:45.927Z,81.65
2017-06-21T11:06:46.575Z,81.75
2017-06-21T11:07:47.216Z,81.37
2017-06-21T11:08:47.863Z,82.14
2017-06-21T11:09:48.507Z,81.65
2017-06-21T11:10:49.154Z,81.27
2017-06-21T11:11:49.801Z,82.04
2017-06-21T11:12:50.443Z,81.46
2017-06-21T11:13:51.288Z,82.43
2017-06-21T11:14:51.931Z,82.53
2017-06-21T11:15:52.577Z,82.04
2017-06-21T11:16:53.221Z,82.14
2017-06-21T11:17:53.918Z,81.95
2017-06-21T11:18:54.562Z,82.43
2017-06-21T11:19:55.210Z,83.40
2017-06-21T11:20:55.855Z,83.69
2017-06-21T11:21:56.501Z,83.20
2017-06-21T11:22:57.295Z,82.81
2017-06-21T11:23:57.942Z,82.53
2017-06-21T11:24:58.587Z,81.85
2017-06-21T11:25:59.234Z,81.85
2017-06-21T11:26:59.879Z,81.75
2017-06-21T11:28:00.522Z,83.40
2017-06-21T11:29:01.168Z,82.43
2017-06-21T11:30:01.811Z,83.49
2017-06-21T11:31:02.705Z,82.43
2017-06-21T11:32:03.354Z,81.85
2017-06-21T11:33:03.998Z,82.04
2017-06-21T11:34:04.646Z,82.33
2017-06-21T11:35:05.292Z,84.56
2017-06-21T11:36:05.936Z,82.91
2017-06-21T11:37:06.580Z,83.59
2017-06-21T11:38:07.223Z,84.36
2017-06-21T11:39:08.118Z,83.78
2017-06-21T11:40:08.761Z,86.69
2017-06-21T11:41:09.408Z,87.65
2017-06-21T11:42:10.053Z,84.08
2017-06-21T11:43:10.698Z,87.07
2017-06-21T11:44:11.345Z,87.65
2017-06-21T11:45:11.987Z,84.36
2017-06-21T11:46:12.634Z,83.49
2017-06-21T11:47:13.486Z,83.49
2017-06-21T11:48:14.131Z,83.20
2017-06-21T11:49:14.775Z,83.40
2017-06-21T11:50:15.420Z,83.40
2017-06-21T11:51:16.068Z,83.88
2017-06-21T11:52:16.712Z,83.49
2017-06-21T11:53:17.355Z,83.40
2017-06-21T11:54:17.998Z,83.20
2017-06-21T11:55:18.893Z,83.69
2017-06-21T11:56:19.539Z,85.72
2017-06-21T11:57:20.182Z,84.27
2017-06-21T11:58:20.830Z,83.40
2017-06-21T11:59:21.473Z,83.59
2017-06-21T12:00:22.120Z,84.36
2017-06-21T12:01:22.762Z,83.20
2017-06-21T12:02:23.406Z,82.91
2017-06-21T12:03:24.051Z,82.81
2017-06-21T12:04:24.997Z,82.81
2017-06-21T12:05:25.639Z,83.40
2017-06-21T12:06:26.286Z,83.40
2017-06-21T12:07:26.932Z,83.49
2017-06-21T12:08:27.576Z,82.81
2017-06-21T12:09:28.223Z,82.62
2017-06-21T12:10:28.867Z,83.49
2017-06-21T12:11:29.512Z,82.53
2017-06-21T12:12:30.307Z,82.04
2017-06-21T12:13:30.952Z,81.75
2017-06-21T12:14:31.598Z,82.53
2017-06-21T12:15:32.243Z,83.98
2017-06-21T12:16:32.887Z,83.59
2017-06-21T12:17:33.539Z,83.30
2017-06-21T12:18:34.183Z,85.24
2017-06-21T12:19:34.827Z,83.30
2017-06-21T12:20:35.672Z,83.59
2017-06-21T12:21:36.318Z,82.43
2017-06-21T12:22:36.964Z,82.53
2017-06-21T12:23:37.608Z,82.23
2017-06-21T12:24:38.253Z,83.11
2017-06-21T12:25:38.894Z,82.43
2017-06-21T12:26:39.538Z,81.85
2017-06-21T12:27:40.183Z,81.95
2017-06-21T12:28:40.978Z,82.33
2017-06-21T12:29:41.621Z,83.01
2017-06-21T12:30:42.267Z,82.04
2017-06-21T12:31:42.912Z,82.53
2017-06-21T12:32:43.506Z,83.30
2017-06-21T12:33:44.151Z,82.04
2017-06-21T12:34:44.794Z,81.75
2017-06-21T12:35:45.438Z,82.23
2017-06-21T12:36:46.081Z,82.04
2017-06-21T12:37:46.926Z,81.75
2017-06-21T12:38:47.571Z,83.11
2017-06-21T12:39:48.217Z,82.43
2017-06-21T12:40:48.861Z,81.75
2017-06-21T12:41:49.503Z,83.01
2017-06-21T12:42:50.172Z,82.33
2017-06-21T12:43:50.793Z,82.81
2017-06-21T12:44:51.436Z,82.33
2017-06-21T12:45:52.285Z,81.95
2017-06-21T12:46:52.927Z,81.56
2017-06-21T12:47:53.570Z,82.14
2017-06-21T12:48:54.217Z,81.85
2017-06-21T12:49:54.863Z,81.95
2017-06-21T12:50:55.505Z,81.79
2017-06-21T12:51:56.153Z,82.04
2017-06-21T12:52:56.798Z,82.04
2017-06-21T12:53:57.596Z,81.56
2017-06-21T12:54:58.242Z,81.30
2017-06-21T12:55:58.885Z,82.43
2017-06-21T12:56:59.528Z,81.95
2017-06-21T12:58:00.173Z,82.76
2017-06-21T12:59:00.818Z,82.81
2017-06-21T13:00:01.416Z,83.05
2017-06-21T13:01:02.118Z,82.47